sensor_id;sensor_type;location;lat;lon;timestamp;P1;durP1;ratioP1;P2;durP2;ratioP2
78561;SDS011;68963;52.138;5.446;2023-09-18T00:00:19;21.48;;;12.55;;
78561;SDS011;68963;52.138;5.446;2023-09-18T00:02:47;24.13;;;14.13;;
78561;SDS011;68963;52.138;5.446;2023-09-18T00:05:14;27.40;;;13.77;;
78561;SDS011;68963;52.138;5.446;2023-09-18T00:07:42;26.17;;;14.00;;
78561;SDS011;68963;52.138;5.446;2023-09-18T00:10:10;22.73;;;12.75;;
78561;SDS011;68963;52.138;5.446;2023-09-18T00:12:37;22.48;;;13.52;;
78561;SDS011;68963;52.138;5.446;2023-09-18T00:15:05;21.60;;;13.65;;
78561;SDS011;68963;52.138;5.446;2023-09-18T00:17:35;26.15;;;14.00;;
78561;SDS011;68963;52.138;5.446;2023-09-18T00:22:33;27.83;;;14.05;;
78561;SDS011;68963;52.138;5.446;2023-09-18T00:25:00;21.83;;;13.93;;
78561;SDS011;68963;52.138;5.446;2023-09-18T00:27:29;25.67;;;13.10;;
78561;SDS011;68963;52.138;5.446;2023-09-18T00:29:55;22.13;;;13.45;;
78561;SDS011;68963;52.138;5.446;2023-09-18T00:32:22;22.23;;;13.23;;
78561;SDS011;68963;52.138;5.446;2023-09-18T00:34:49;20.58;;;13.63;;
78561;SDS011;68963;52.138;5.446;2023-09-18T00:37:15;24.52;;;13.75;;
78561;SDS011;68963;52.138;5.446;2023-09-18T00:39:43;20.23;;;13.27;;
78561;SDS011;68963;52.138;5.446;2023-09-18T00:42:10;22.15;;;13.60;;
78561;SDS011;68963;52.138;5.446;2023-09-18T00:44:40;25.02;;;14.88;;
78561;SDS011;68963;52.138;5.446;2023-09-18T00:47:09;24.00;;;13.40;;
78561;SDS011;68963;52.138;5.446;2023-09-18T00:49:38;24.92;;;14.45;;
78561;SDS011;68963;52.138;5.446;2023-09-18T00:52:07;24.65;;;14.68;;
78561;SDS011;68963;52.138;5.446;2023-09-18T00:54:36;25.70;;;14.32;;
78561;SDS011;68963;52.138;5.446;2023-09-18T00:57:05;25.00;;;15.13;;
78561;SDS011;68963;52.138;5.446;2023-09-18T00:59:32;22.75;;;13.68;;
78561;SDS011;68963;52.138;5.446;2023-09-18T01:02:00;26.67;;;14.70;;
78561;SDS011;68963;52.138;5.446;2023-09-18T01:06:56;27.05;;;14.75;;
78561;SDS011;68963;52.138;5.446;2023-09-18T01:12:16;22.63;;;14.02;;
78561;SDS011;68963;52.138;5.446;2023-09-18T01:17:39;24.52;;;15.15;;
78561;SDS011;68963;52.138;5.446;2023-09-18T01:20:10;23.35;;;14.52;;
78561;SDS011;68963;52.138;5.446;2023-09-18T01:22:38;25.35;;;14.65;;
78561;SDS011;68963;52.138;5.446;2023-09-18T01:25:05;22.67;;;13.60;;
78561;SDS011;68963;52.138;5.446;2023-09-18T01:27:33;22.50;;;14.27;;
78561;SDS011;68963;52.138;5.446;2023-09-18T01:30:00;24.60;;;14.52;;
78561;SDS011;68963;52.138;5.446;2023-09-18T01:32:27;24.85;;;15.13;;
78561;SDS011;68963;52.138;5.446;2023-09-18T01:34:57;22.15;;;14.30;;
78561;SDS011;68963;52.138;5.446;2023-09-18T01:37:27;23.15;;;14.27;;
78561;SDS011;68963;52.138;5.446;2023-09-18T01:39:56;23.20;;;14.32;;
78561;SDS011;68963;52.138;5.446;2023-09-18T01:42:26;21.67;;;14.45;;
78561;SDS011;68963;52.138;5.446;2023-09-18T01:44:53;21.80;;;14.18;;
78561;SDS011;68963;52.138;5.446;2023-09-18T01:47:22;26.98;;;16.23;;
78561;SDS011;68963;52.138;5.446;2023-09-18T01:49:49;22.63;;;14.82;;
78561;SDS011;68963;52.138;5.446;2023-09-18T01:52:16;27.75;;;16.23;;
78561;SDS011;68963;52.138;5.446;2023-09-18T01:54:43;27.85;;;15.40;;
78561;SDS011;68963;52.138;5.446;2023-09-18T01:57:10;24.50;;;14.52;;
78561;SDS011;68963;52.138;5.446;2023-09-18T01:59:38;23.08;;;14.63;;
78561;SDS011;68963;52.138;5.446;2023-09-18T02:02:05;26.10;;;15.43;;
78561;SDS011;68963;52.138;5.446;2023-09-18T02:04:43;25.63;;;14.48;;
78561;SDS011;68963;52.138;5.446;2023-09-18T02:07:31;21.92;;;13.68;;
78561;SDS011;68963;52.138;5.446;2023-09-18T02:09:58;21.63;;;14.15;;
78561;SDS011;68963;52.138;5.446;2023-09-18T02:12:25;23.77;;;13.77;;
78561;SDS011;68963;52.138;5.446;2023-09-18T02:14:51;22.25;;;14.05;;
78561;SDS011;68963;52.138;5.446;2023-09-18T02:17:18;22.77;;;14.50;;
78561;SDS011;68963;52.138;5.446;2023-09-18T02:19:47;24.90;;;15.45;;
78561;SDS011;68963;52.138;5.446;2023-09-18T02:22:13;26.05;;;15.95;;
78561;SDS011;68963;52.138;5.446;2023-09-18T02:24:40;23.75;;;15.90;;
78561;SDS011;68963;52.138;5.446;2023-09-18T02:27:07;26.85;;;15.50;;
78561;SDS011;68963;52.138;5.446;2023-09-18T02:29:33;26.35;;;16.13;;
78561;SDS011;68963;52.138;5.446;2023-09-18T02:32:00;27.80;;;16.15;;
78561;SDS011;68963;52.138;5.446;2023-09-18T02:34:27;25.00;;;15.48;;
78561;SDS011;68963;52.138;5.446;2023-09-18T02:36:53;26.63;;;15.93;;
78561;SDS011;68963;52.138;5.446;2023-09-18T02:39:20;24.50;;;15.65;;
78561;SDS011;68963;52.138;5.446;2023-09-18T02:41:47;26.10;;;15.18;;
78561;SDS011;68963;52.138;5.446;2023-09-18T02:44:13;25.15;;;14.80;;
78561;SDS011;68963;52.138;5.446;2023-09-18T02:46:41;26.15;;;15.65;;
78561;SDS011;68963;52.138;5.446;2023-09-18T02:49:09;24.77;;;15.43;;
78561;SDS011;68963;52.138;5.446;2023-09-18T02:51:36;27.30;;;15.65;;
78561;SDS011;68963;52.138;5.446;2023-09-18T02:54:03;22.80;;;14.63;;
78561;SDS011;68963;52.138;5.446;2023-09-18T02:56:29;25.17;;;14.02;;
78561;SDS011;68963;52.138;5.446;2023-09-18T02:58:56;23.95;;;14.25;;
78561;SDS011;68963;52.138;5.446;2023-09-18T03:01:23;22.13;;;15.00;;
78561;SDS011;68963;52.138;5.446;2023-09-18T03:03:49;26.50;;;15.50;;
78561;SDS011;68963;52.138;5.446;2023-09-18T03:06:16;23.85;;;15.68;;
78561;SDS011;68963;52.138;5.446;2023-09-18T03:08:43;25.02;;;15.45;;
78561;SDS011;68963;52.138;5.446;2023-09-18T03:11:12;23.55;;;15.13;;
78561;SDS011;68963;52.138;5.446;2023-09-18T03:13:46;25.50;;;14.98;;
78561;SDS011;68963;52.138;5.446;2023-09-18T03:16:13;25.02;;;15.43;;
78561;SDS011;68963;52.138;5.446;2023-09-18T03:18:40;25.85;;;15.60;;
78561;SDS011;68963;52.138;5.446;2023-09-18T03:21:07;23.15;;;15.57;;
78561;SDS011;68963;52.138;5.446;2023-09-18T03:23:34;23.80;;;15.38;;
78561;SDS011;68963;52.138;5.446;2023-09-18T03:26:00;27.70;;;15.77;;
78561;SDS011;68963;52.138;5.446;2023-09-18T03:28:27;26.88;;;16.70;;
78561;SDS011;68963;52.138;5.446;2023-09-18T03:30:54;29.65;;;16.70;;
78561;SDS011;68963;52.138;5.446;2023-09-18T03:33:21;23.98;;;15.82;;
78561;SDS011;68963;52.138;5.446;2023-09-18T03:35:48;26.20;;;15.45;;
78561;SDS011;68963;52.138;5.446;2023-09-18T03:38:16;23.70;;;15.30;;
78561;SDS011;68963;52.138;5.446;2023-09-18T03:40:43;29.00;;;16.88;;
78561;SDS011;68963;52.138;5.446;2023-09-18T03:43:10;29.38;;;17.60;;
78561;SDS011;68963;52.138;5.446;2023-09-18T03:45:38;29.15;;;16.58;;
78561;SDS011;68963;52.138;5.446;2023-09-18T03:48:08;30.55;;;17.05;;
78561;SDS011;68963;52.138;5.446;2023-09-18T03:50:36;28.98;;;17.08;;
78561;SDS011;68963;52.138;5.446;2023-09-18T03:53:02;31.05;;;16.83;;
78561;SDS011;68963;52.138;5.446;2023-09-18T03:55:29;32.00;;;17.83;;
78561;SDS011;68963;52.138;5.446;2023-09-18T03:57:56;30.30;;;17.35;;
78561;SDS011;68963;52.138;5.446;2023-09-18T04:00:23;31.88;;;17.83;;
78561;SDS011;68963;52.138;5.446;2023-09-18T04:02:50;31.02;;;17.77;;
78561;SDS011;68963;52.138;5.446;2023-09-18T04:05:17;30.98;;;18.38;;
78561;SDS011;68963;52.138;5.446;2023-09-18T04:07:45;30.75;;;17.13;;
78561;SDS011;68963;52.138;5.446;2023-09-18T04:10:13;30.70;;;17.65;;
78561;SDS011;68963;52.138;5.446;2023-09-18T04:12:50;28.33;;;17.35;;
78561;SDS011;68963;52.138;5.446;2023-09-18T04:15:17;29.52;;;15.88;;
78561;SDS011;68963;52.138;5.446;2023-09-18T04:17:45;30.40;;;16.83;;
78561;SDS011;68963;52.138;5.446;2023-09-18T04:20:12;31.50;;;16.80;;
78561;SDS011;68963;52.138;5.446;2023-09-18T04:22:46;34.50;;;16.95;;
78561;SDS011;68963;52.138;5.446;2023-09-18T04:25:16;27.10;;;16.02;;
78561;SDS011;68963;52.138;5.446;2023-09-18T04:27:46;30.20;;;15.43;;
78561;SDS011;68963;52.138;5.446;2023-09-18T04:30:13;29.52;;;15.90;;
78561;SDS011;68963;52.138;5.446;2023-09-18T04:32:40;30.02;;;15.48;;
78561;SDS011;68963;52.138;5.446;2023-09-18T04:35:07;26.67;;;14.85;;
78561;SDS011;68963;52.138;5.446;2023-09-18T04:37:35;28.80;;;14.82;;
78561;SDS011;68963;52.138;5.446;2023-09-18T04:40:04;24.80;;;14.63;;
78561;SDS011;68963;52.138;5.446;2023-09-18T04:42:36;24.75;;;14.02;;
78561;SDS011;68963;52.138;5.446;2023-09-18T04:45:04;24.50;;;14.75;;
78561;SDS011;68963;52.138;5.446;2023-09-18T04:47:31;24.73;;;14.57;;
78561;SDS011;68963;52.138;5.446;2023-09-18T04:49:58;24.10;;;13.73;;
78561;SDS011;68963;52.138;5.446;2023-09-18T04:52:25;27.70;;;14.52;;
78561;SDS011;68963;52.138;5.446;2023-09-18T04:54:51;24.33;;;14.30;;
78561;SDS011;68963;52.138;5.446;2023-09-18T04:57:18;25.75;;;13.48;;
78561;SDS011;68963;52.138;5.446;2023-09-18T04:59:45;23.90;;;14.38;;
78561;SDS011;68963;52.138;5.446;2023-09-18T05:02:11;39.45;;;14.70;;
78561;SDS011;68963;52.138;5.446;2023-09-18T05:04:39;37.08;;;15.15;;
78561;SDS011;68963;52.138;5.446;2023-09-18T05:07:05;49.33;;;14.80;;
78561;SDS011;68963;52.138;5.446;2023-09-18T05:09:32;34.72;;;13.85;;
78561;SDS011;68963;52.138;5.446;2023-09-18T05:12:01;21.83;;;11.98;;
78561;SDS011;68963;52.138;5.446;2023-09-18T05:14:31;18.90;;;9.57;;
78561;SDS011;68963;52.138;5.446;2023-09-18T05:16:57;13.70;;;7.55;;
78561;SDS011;68963;52.138;5.446;2023-09-18T05:19:24;14.52;;;7.68;;
78561;SDS011;68963;52.138;5.446;2023-09-18T05:21:51;14.95;;;7.82;;
78561;SDS011;68963;52.138;5.446;2023-09-18T05:24:18;14.88;;;7.50;;
78561;SDS011;68963;52.138;5.446;2023-09-18T05:26:53;14.52;;;6.60;;
78561;SDS011;68963;52.138;5.446;2023-09-18T05:29:19;11.60;;;6.63;;
78561;SDS011;68963;52.138;5.446;2023-09-18T05:31:46;13.27;;;6.88;;
78561;SDS011;68963;52.138;5.446;2023-09-18T05:34:13;14.13;;;6.60;;
78561;SDS011;68963;52.138;5.446;2023-09-18T05:36:39;13.75;;;7.35;;
78561;SDS011;68963;52.138;5.446;2023-09-18T05:39:06;14.90;;;6.28;;
78561;SDS011;68963;52.138;5.446;2023-09-18T05:41:39;11.73;;;5.93;;
78561;SDS011;68963;52.138;5.446;2023-09-18T05:44:06;12.60;;;6.30;;
78561;SDS011;68963;52.138;5.446;2023-09-18T05:46:34;13.63;;;6.68;;
78561;SDS011;68963;52.138;5.446;2023-09-18T05:49:02;15.05;;;6.30;;
78561;SDS011;68963;52.138;5.446;2023-09-18T05:51:29;11.70;;;6.50;;
78561;SDS011;68963;52.138;5.446;2023-09-18T05:53:56;11.40;;;6.75;;
78561;SDS011;68963;52.138;5.446;2023-09-18T05:56:23;13.55;;;7.13;;
78561;SDS011;68963;52.138;5.446;2023-09-18T05:58:50;14.23;;;6.95;;
78561;SDS011;68963;52.138;5.446;2023-09-18T06:01:18;12.48;;;7.00;;
78561;SDS011;68963;52.138;5.446;2023-09-18T06:03:44;14.98;;;6.97;;
78561;SDS011;68963;52.138;5.446;2023-09-18T06:06:11;14.77;;;7.45;;
78561;SDS011;68963;52.138;5.446;2023-09-18T06:08:38;13.07;;;7.20;;
78561;SDS011;68963;52.138;5.446;2023-09-18T06:11:04;13.40;;;7.38;;
78561;SDS011;68963;52.138;5.446;2023-09-18T06:13:31;14.95;;;7.25;;
78561;SDS011;68963;52.138;5.446;2023-09-18T06:16:00;14.63;;;8.55;;
78561;SDS011;68963;52.138;5.446;2023-09-18T06:18:33;13.98;;;8.15;;
78561;SDS011;68963;52.138;5.446;2023-09-18T06:21:02;15.23;;;8.52;;
78561;SDS011;68963;52.138;5.446;2023-09-18T06:23:28;19.30;;;9.80;;
78561;SDS011;68963;52.138;5.446;2023-09-18T06:25:55;15.77;;;8.75;;
78561;SDS011;68963;52.138;5.446;2023-09-18T06:28:22;14.82;;;9.30;;
78561;SDS011;68963;52.138;5.446;2023-09-18T06:30:49;17.88;;;9.75;;
78561;SDS011;68963;52.138;5.446;2023-09-18T06:33:16;16.77;;;10.35;;
78561;SDS011;68963;52.138;5.446;2023-09-18T06:35:43;18.63;;;10.27;;
78561;SDS011;68963;52.138;5.446;2023-09-18T06:38:10;18.90;;;10.73;;
78561;SDS011;68963;52.138;5.446;2023-09-18T06:40:38;20.80;;;9.93;;
78561;SDS011;68963;52.138;5.446;2023-09-18T06:43:05;17.85;;;10.43;;
78561;SDS011;68963;52.138;5.446;2023-09-18T06:45:32;19.60;;;10.95;;
78561;SDS011;68963;52.138;5.446;2023-09-18T06:47:59;20.73;;;10.25;;
78561;SDS011;68963;52.138;5.446;2023-09-18T06:50:29;18.85;;;10.43;;
78561;SDS011;68963;52.138;5.446;2023-09-18T06:52:57;17.30;;;10.60;;
78561;SDS011;68963;52.138;5.446;2023-09-18T06:55:23;17.67;;;10.18;;
78561;SDS011;68963;52.138;5.446;2023-09-18T06:57:50;19.55;;;10.73;;
78561;SDS011;68963;52.138;5.446;2023-09-18T07:02:47;20.45;;;9.77;;
78561;SDS011;68963;52.138;5.446;2023-09-18T07:05:16;19.17;;;10.05;;
78561;SDS011;68963;52.138;5.446;2023-09-18T07:07:43;21.52;;;10.43;;
78561;SDS011;68963;52.138;5.446;2023-09-18T07:10:10;20.02;;;10.13;;
78561;SDS011;68963;52.138;5.446;2023-09-18T07:12:36;19.42;;;9.55;;
78561;SDS011;68963;52.138;5.446;2023-09-18T07:15:03;18.48;;;10.35;;
78561;SDS011;68963;52.138;5.446;2023-09-18T07:17:31;19.85;;;10.35;;
78561;SDS011;68963;52.138;5.446;2023-09-18T07:19:59;19.20;;;10.38;;
78561;SDS011;68963;52.138;5.446;2023-09-18T07:22:26;19.77;;;10.70;;
78561;SDS011;68963;52.138;5.446;2023-09-18T07:24:56;18.02;;;10.07;;
78561;SDS011;68963;52.138;5.446;2023-09-18T07:27:23;17.20;;;10.30;;
78561;SDS011;68963;52.138;5.446;2023-09-18T07:29:49;17.20;;;9.80;;
78561;SDS011;68963;52.138;5.446;2023-09-18T07:32:16;16.02;;;10.05;;
78561;SDS011;68963;52.138;5.446;2023-09-18T07:35:02;17.77;;;10.10;;
78561;SDS011;68963;52.138;5.446;2023-09-18T07:37:31;19.02;;;10.13;;
78561;SDS011;68963;52.138;5.446;2023-09-18T07:39:57;15.70;;;9.57;;
78561;SDS011;68963;52.138;5.446;2023-09-18T07:42:25;18.33;;;9.85;;
78561;SDS011;68963;52.138;5.446;2023-09-18T07:44:52;14.98;;;9.07;;
78561;SDS011;68963;52.138;5.446;2023-09-18T07:47:23;17.63;;;9.63;;
78561;SDS011;68963;52.138;5.446;2023-09-18T07:49:49;14.85;;;9.05;;
78561;SDS011;68963;52.138;5.446;2023-09-18T07:52:17;15.25;;;8.77;;
78561;SDS011;68963;52.138;5.446;2023-09-18T07:54:43;16.15;;;8.77;;
78561;SDS011;68963;52.138;5.446;2023-09-18T07:57:10;15.60;;;8.43;;
78561;SDS011;68963;52.138;5.446;2023-09-18T07:59:37;16.85;;;8.40;;
78561;SDS011;68963;52.138;5.446;2023-09-18T08:02:05;16.92;;;8.73;;
78561;SDS011;68963;52.138;5.446;2023-09-18T08:04:32;13.75;;;7.93;;
78561;SDS011;68963;52.138;5.446;2023-09-18T08:06:59;14.65;;;8.15;;
78561;SDS011;68963;52.138;5.446;2023-09-18T08:09:26;13.85;;;8.00;;
78561;SDS011;68963;52.138;5.446;2023-09-18T08:11:55;11.93;;;7.05;;
78561;SDS011;68963;52.138;5.446;2023-09-18T08:14:22;12.40;;;6.88;;
78561;SDS011;68963;52.138;5.446;2023-09-18T08:16:54;12.82;;;6.57;;
78561;SDS011;68963;52.138;5.446;2023-09-18T08:19:23;12.45;;;6.63;;
78561;SDS011;68963;52.138;5.446;2023-09-18T08:21:53;11.20;;;6.32;;
78561;SDS011;68963;52.138;5.446;2023-09-18T08:24:20;9.82;;;5.88;;
78561;SDS011;68963;52.138;5.446;2023-09-18T08:26:47;11.93;;;6.15;;
78561;SDS011;68963;52.138;5.446;2023-09-18T08:29:14;11.95;;;5.82;;
78561;SDS011;68963;52.138;5.446;2023-09-18T08:31:41;9.48;;;5.55;;
78561;SDS011;68963;52.138;5.446;2023-09-18T08:34:08;10.57;;;5.80;;
78561;SDS011;68963;52.138;5.446;2023-09-18T08:36:35;9.00;;;5.65;;
78561;SDS011;68963;52.138;5.446;2023-09-18T08:39:02;11.13;;;5.22;;
78561;SDS011;68963;52.138;5.446;2023-09-18T08:41:32;12.25;;;5.63;;
78561;SDS011;68963;52.138;5.446;2023-09-18T08:44:02;9.98;;;5.20;;
78561;SDS011;68963;52.138;5.446;2023-09-18T08:46:30;9.13;;;5.07;;
78561;SDS011;68963;52.138;5.446;2023-09-18T08:48:59;11.43;;;5.63;;
78561;SDS011;68963;52.138;5.446;2023-09-18T08:51:27;10.93;;;5.43;;
78561;SDS011;68963;52.138;5.446;2023-09-18T08:53:54;10.00;;;5.85;;
78561;SDS011;68963;52.138;5.446;2023-09-18T08:56:22;10.88;;;5.57;;
78561;SDS011;68963;52.138;5.446;2023-09-18T08:58:49;9.73;;;5.28;;
78561;SDS011;68963;52.138;5.446;2023-09-18T09:01:17;11.57;;;4.60;;
78561;SDS011;68963;52.138;5.446;2023-09-18T09:03:43;9.30;;;4.97;;
78561;SDS011;68963;52.138;5.446;2023-09-18T09:06:13;8.82;;;4.55;;
78561;SDS011;68963;52.138;5.446;2023-09-18T09:08:40;8.15;;;4.57;;
78561;SDS011;68963;52.138;5.446;2023-09-18T09:11:07;9.05;;;4.70;;
78561;SDS011;68963;52.138;5.446;2023-09-18T09:13:33;9.82;;;4.82;;
78561;SDS011;68963;52.138;5.446;2023-09-18T09:16:06;9.65;;;4.72;;
78561;SDS011;68963;52.138;5.446;2023-09-18T09:18:46;8.23;;;4.68;;
78561;SDS011;68963;52.138;5.446;2023-09-18T09:21:14;11.38;;;4.70;;
78561;SDS011;68963;52.138;5.446;2023-09-18T09:23:48;8.73;;;4.65;;
78561;SDS011;68963;52.138;5.446;2023-09-18T09:26:19;8.80;;;4.72;;
78561;SDS011;68963;52.138;5.446;2023-09-18T09:28:47;8.68;;;4.47;;
78561;SDS011;68963;52.138;5.446;2023-09-18T09:31:27;8.30;;;4.50;;
78561;SDS011;68963;52.138;5.446;2023-09-18T09:33:57;8.90;;;4.15;;
78561;SDS011;68963;52.138;5.446;2023-09-18T09:36:24;10.13;;;4.60;;
78561;SDS011;68963;52.138;5.446;2023-09-18T09:38:55;9.35;;;4.38;;
78561;SDS011;68963;52.138;5.446;2023-09-18T09:41:26;8.48;;;4.03;;
78561;SDS011;68963;52.138;5.446;2023-09-18T09:43:54;12.77;;;4.28;;
78561;SDS011;68963;52.138;5.446;2023-09-18T09:46:22;7.80;;;3.90;;
78561;SDS011;68963;52.138;5.446;2023-09-18T09:49:02;8.35;;;4.00;;
78561;SDS011;68963;52.138;5.446;2023-09-18T09:51:32;7.50;;;3.90;;
78561;SDS011;68963;52.138;5.446;2023-09-18T09:54:00;13.35;;;4.95;;
78561;SDS011;68963;52.138;5.446;2023-09-18T09:59:29;10.57;;;5.72;;
78561;SDS011;68963;52.138;5.446;2023-09-18T10:01:55;8.63;;;5.70;;
78561;SDS011;68963;52.138;5.446;2023-09-18T10:04:27;12.50;;;6.28;;
78561;SDS011;68963;52.138;5.446;2023-09-18T10:06:58;9.93;;;6.10;;
78561;SDS011;68963;52.138;5.446;2023-09-18T10:09:32;9.30;;;6.25;;
78561;SDS011;68963;52.138;5.446;2023-09-18T10:12:02;10.80;;;6.15;;
78561;SDS011;68963;52.138;5.446;2023-09-18T10:14:32;9.02;;;6.20;;
78561;SDS011;68963;52.138;5.446;2023-09-18T10:17:21;9.15;;;6.00;;
78561;SDS011;68963;52.138;5.446;2023-09-18T10:22:38;8.82;;;5.63;;
78561;SDS011;68963;52.138;5.446;2023-09-18T10:27:36;8.07;;;5.88;;
78561;SDS011;68963;52.138;5.446;2023-09-18T10:30:07;8.80;;;6.15;;
78561;SDS011;68963;52.138;5.446;2023-09-18T10:32:40;10.90;;;6.05;;
78561;SDS011;68963;52.138;5.446;2023-09-18T10:35:07;9.48;;;6.28;;
78561;SDS011;68963;52.138;5.446;2023-09-18T10:37:35;10.32;;;6.50;;
78561;SDS011;68963;52.138;5.446;2023-09-18T10:40:03;8.32;;;6.28;;
78561;SDS011;68963;52.138;5.446;2023-09-18T10:42:34;9.80;;;7.00;;
78561;SDS011;68963;52.138;5.446;2023-09-18T10:45:04;10.90;;;7.63;;
78561;SDS011;68963;52.138;5.446;2023-09-18T10:47:31;10.77;;;7.65;;
78561;SDS011;68963;52.138;5.446;2023-09-18T10:52:25;10.38;;;7.53;;
78561;SDS011;68963;52.138;5.446;2023-09-18T10:54:52;12.02;;;7.63;;
78561;SDS011;68963;52.138;5.446;2023-09-18T10:57:19;11.55;;;8.13;;
78561;SDS011;68963;52.138;5.446;2023-09-18T10:59:49;11.00;;;7.57;;
78561;SDS011;68963;52.138;5.446;2023-09-18T11:02:16;10.95;;;7.45;;
78561;SDS011;68963;52.138;5.446;2023-09-18T11:04:44;11.77;;;6.88;;
78561;SDS011;68963;52.138;5.446;2023-09-18T11:07:21;13.20;;;7.30;;
78561;SDS011;68963;52.138;5.446;2023-09-18T11:09:48;11.43;;;7.10;;
78561;SDS011;68963;52.138;5.446;2023-09-18T11:12:16;11.98;;;7.18;;
78561;SDS011;68963;52.138;5.446;2023-09-18T11:20:04;10.85;;;6.78;;
78561;SDS011;68963;52.138;5.446;2023-09-18T11:25:36;11.07;;;6.18;;
78561;SDS011;68963;52.138;5.446;2023-09-18T11:28:05;9.15;;;6.30;;
78561;SDS011;68963;52.138;5.446;2023-09-18T11:30:34;11.40;;;6.82;;
78561;SDS011;68963;52.138;5.446;2023-09-18T11:33:06;13.05;;;6.03;;
78561;SDS011;68963;52.138;5.446;2023-09-18T11:35:34;8.80;;;5.68;;
78561;SDS011;68963;52.138;5.446;2023-09-18T11:40:33;10.00;;;6.07;;
78561;SDS011;68963;52.138;5.446;2023-09-18T11:45:52;9.27;;;5.07;;
78561;SDS011;68963;52.138;5.446;2023-09-18T11:48:22;10.15;;;5.45;;
78561;SDS011;68963;52.138;5.446;2023-09-18T11:53:23;11.63;;;6.45;;
78561;SDS011;68963;52.138;5.446;2023-09-18T11:55:52;10.32;;;6.78;;
78561;SDS011;68963;52.138;5.446;2023-09-18T11:58:19;10.23;;;6.68;;
78561;SDS011;68963;52.138;5.446;2023-09-18T12:00:50;10.23;;;6.82;;
78561;SDS011;68963;52.138;5.446;2023-09-18T12:05:54;12.88;;;5.88;;
78561;SDS011;68963;52.138;5.446;2023-09-18T12:08:23;9.57;;;5.53;;
78561;SDS011;68963;52.138;5.446;2023-09-18T12:10:54;11.35;;;5.63;;
78561;SDS011;68963;52.138;5.446;2023-09-18T12:13:21;9.25;;;5.78;;
78561;SDS011;68963;52.138;5.446;2023-09-18T12:15:51;11.75;;;5.35;;
78561;SDS011;68963;52.138;5.446;2023-09-18T12:18:23;8.88;;;5.50;;
78561;SDS011;68963;52.138;5.446;2023-09-18T12:20:52;9.07;;;5.15;;
78561;SDS011;68963;52.138;5.446;2023-09-18T12:23:19;10.10;;;5.20;;
78561;SDS011;68963;52.138;5.446;2023-09-18T12:25:47;10.23;;;5.30;;
78561;SDS011;68963;52.138;5.446;2023-09-18T12:28:15;9.15;;;4.82;;
78561;SDS011;68963;52.138;5.446;2023-09-18T12:30:43;8.43;;;5.43;;
78561;SDS011;68963;52.138;5.446;2023-09-18T12:33:16;8.20;;;4.90;;
78561;SDS011;68963;52.138;5.446;2023-09-18T12:35:43;8.25;;;4.75;;
78561;SDS011;68963;52.138;5.446;2023-09-18T12:38:16;8.70;;;4.72;;
78561;SDS011;68963;52.138;5.446;2023-09-18T12:40:48;9.57;;;4.75;;
78561;SDS011;68963;52.138;5.446;2023-09-18T12:43:15;8.52;;;4.97;;
78561;SDS011;68963;52.138;5.446;2023-09-18T12:45:42;7.50;;;4.65;;
78561;SDS011;68963;52.138;5.446;2023-09-18T12:50:38;9.02;;;4.35;;
78561;SDS011;68963;52.138;5.446;2023-09-18T12:53:11;8.57;;;4.60;;
78561;SDS011;68963;52.138;5.446;2023-09-18T12:55:40;8.48;;;4.40;;
78561;SDS011;68963;52.138;5.446;2023-09-18T12:58:12;8.15;;;4.40;;
78561;SDS011;68963;52.138;5.446;2023-09-18T13:00:46;10.45;;;5.03;;
78561;SDS011;68963;52.138;5.446;2023-09-18T13:03:16;8.57;;;4.80;;
78561;SDS011;68963;52.138;5.446;2023-09-18T13:05:46;9.48;;;4.70;;
78561;SDS011;68963;52.138;5.446;2023-09-18T13:08:14;8.30;;;4.80;;
78561;SDS011;68963;52.138;5.446;2023-09-18T13:10:44;6.57;;;4.35;;
78561;SDS011;68963;52.138;5.446;2023-09-18T13:13:16;8.23;;;4.40;;
78561;SDS011;68963;52.138;5.446;2023-09-18T13:15:43;8.63;;;4.50;;
78561;SDS011;68963;52.138;5.446;2023-09-18T13:18:14;7.82;;;4.20;;
78561;SDS011;68963;52.138;5.446;2023-09-18T13:20:42;6.57;;;3.83;;
78561;SDS011;68963;52.138;5.446;2023-09-18T13:23:09;7.40;;;4.03;;
78561;SDS011;68963;52.138;5.446;2023-09-18T13:25:37;7.55;;;4.22;;
78561;SDS011;68963;52.138;5.446;2023-09-18T13:28:06;6.60;;;3.72;;
78561;SDS011;68963;52.138;5.446;2023-09-18T13:30:38;6.50;;;3.67;;
78561;SDS011;68963;52.138;5.446;2023-09-18T13:33:07;8.95;;;3.80;;
78561;SDS011;68963;52.138;5.446;2023-09-18T13:35:36;8.07;;;3.60;;
78561;SDS011;68963;52.138;5.446;2023-09-18T13:38:04;7.50;;;3.50;;
78561;SDS011;68963;52.138;5.446;2023-09-18T13:40:34;8.65;;;3.40;;
78561;SDS011;68963;52.138;5.446;2023-09-18T13:43:04;7.22;;;3.53;;
78561;SDS011;68963;52.138;5.446;2023-09-18T13:45:32;5.72;;;3.20;;
78561;SDS011;68963;52.138;5.446;2023-09-18T13:47:59;6.38;;;3.30;;
78561;SDS011;68963;52.138;5.446;2023-09-18T13:50:26;6.65;;;3.22;;
78561;SDS011;68963;52.138;5.446;2023-09-18T13:52:53;5.97;;;3.03;;
78561;SDS011;68963;52.138;5.446;2023-09-18T13:55:20;7.25;;;2.83;;
78561;SDS011;68963;52.138;5.446;2023-09-18T13:57:47;5.72;;;2.80;;
78561;SDS011;68963;52.138;5.446;2023-09-18T14:00:13;6.15;;;3.08;;
78561;SDS011;68963;52.138;5.446;2023-09-18T14:02:41;5.57;;;2.63;;
78561;SDS011;68963;52.138;5.446;2023-09-18T14:05:08;6.22;;;2.90;;
78561;SDS011;68963;52.138;5.446;2023-09-18T14:07:36;6.18;;;2.80;;
78561;SDS011;68963;52.138;5.446;2023-09-18T14:10:07;4.88;;;2.40;;
78561;SDS011;68963;52.138;5.446;2023-09-18T14:12:39;7.13;;;2.80;;
78561;SDS011;68963;52.138;5.446;2023-09-18T14:15:08;5.25;;;2.40;;
78561;SDS011;68963;52.138;5.446;2023-09-18T14:17:35;6.70;;;2.40;;
78561;SDS011;68963;52.138;5.446;2023-09-18T14:20:03;5.25;;;2.40;;
78561;SDS011;68963;52.138;5.446;2023-09-18T14:22:34;5.35;;;2.40;;
78561;SDS011;68963;52.138;5.446;2023-09-18T14:25:01;6.80;;;2.30;;
78561;SDS011;68963;52.138;5.446;2023-09-18T14:27:34;5.30;;;2.38;;
78561;SDS011;68963;52.138;5.446;2023-09-18T14:30:02;4.85;;;2.30;;
78561;SDS011;68963;52.138;5.446;2023-09-18T14:32:33;5.78;;;2.38;;
78561;SDS011;68963;52.138;5.446;2023-09-18T14:35:03;5.45;;;2.40;;
78561;SDS011;68963;52.138;5.446;2023-09-18T14:37:31;5.05;;;2.30;;
78561;SDS011;68963;52.138;5.446;2023-09-18T14:39:58;5.88;;;2.40;;
78561;SDS011;68963;52.138;5.446;2023-09-18T14:42:24;5.20;;;2.30;;
78561;SDS011;68963;52.138;5.446;2023-09-18T14:44:51;6.72;;;2.25;;
78561;SDS011;68963;52.138;5.446;2023-09-18T14:47:17;6.15;;;2.50;;
78561;SDS011;68963;52.138;5.446;2023-09-18T14:49:49;6.45;;;2.40;;
78561;SDS011;68963;52.138;5.446;2023-09-18T14:52:16;7.32;;;3.38;;
78561;SDS011;68963;52.138;5.446;2023-09-18T14:54:45;5.93;;;2.40;;
78561;SDS011;68963;52.138;5.446;2023-09-18T14:57:11;5.13;;;2.20;;
78561;SDS011;68963;52.138;5.446;2023-09-18T14:59:38;5.55;;;2.20;;
78561;SDS011;68963;52.138;5.446;2023-09-18T15:02:08;5.95;;;2.50;;
78561;SDS011;68963;52.138;5.446;2023-09-18T15:04:34;6.63;;;2.35;;
78561;SDS011;68963;52.138;5.446;2023-09-18T15:07:01;5.78;;;2.40;;
78561;SDS011;68963;52.138;5.446;2023-09-18T15:09:29;6.32;;;2.50;;
78561;SDS011;68963;52.138;5.446;2023-09-18T15:11:55;7.03;;;2.80;;
78561;SDS011;68963;52.138;5.446;2023-09-18T15:14:22;6.93;;;2.80;;
78561;SDS011;68963;52.138;5.446;2023-09-18T15:16:49;7.50;;;2.72;;
78561;SDS011;68963;52.138;5.446;2023-09-18T15:19:15;6.93;;;2.70;;
78561;SDS011;68963;52.138;5.446;2023-09-18T15:21:45;8.07;;;2.30;;
78561;SDS011;68963;52.138;5.446;2023-09-18T15:24:12;7.63;;;1.80;;